Nearby METAR Reports

 

KHFD - Hartford/Brainar, Connecticut, USA
Distance from station: NW 13mi, 20km
Updated: Wed, 25-Apr-2018 6:05am EDT
Light rain, Mist, Overcast
Light rain, Mist, Overcast
 Wind from E
Wind: E 5 mph , 7 km/h
Temperature: 52°F , 11°C
Dew Point: 48°F , 9°C
Humidity: 88%
Barometer: 30.07 inHg , 1018.3 hPa
Summary: Light rain, Mist
Clouds: Overcast
Visibility: 6 miles , 10 km
Cloud details: Overcast 1400 ft
2018/04/25 10:05 KHFD 251005Z 09004KT 6SM -RA BR OVC014 11/09 A3007 RMK AO2 P0000 T01060089
KSNC - Chester, Connecticut, USA
Distance from station: S 15mi, 23km
Updated: Wed, 25-Apr-2018 6:15am EDT
Light rain, Overcast
Light rain, Overcast
 Wind from SE
Wind: SE 7 mph , 11 km/h
Temperature: 50°F , 10°C
Wind Chill: 47°F , 8°C
Dew Point: 50°F , 10°C
Humidity: 100%
Barometer: 30.06 inHg , 1017.9 hPa
Summary: Light rain
Clouds: Overcast
Visibility: 4 miles , 6 km
Cloud details: Overcast 200 ft
2018/04/25 10:15 KSNC 251015Z AUTO 13006KT 4SM -RA OVC002 10/10 A3006 RMK AO2
 
KMMK - Meriden, Connecticut, USA
Distance from station: WSW 18mi, 30km
Updated: Wed, 25-Apr-2018 6:11am EDT
Overcast
Overcast
 Wind from NE
Wind: NE 5 mph , 7 km/h
Temperature: 52°F , 11°C
Dew Point: 48°F , 9°C
Humidity: 88%
Barometer: 30.05 inHg , 1017.6 hPa
Clouds: Overcast
Visibility: 10 miles , 16 km
Cloud details: Overcast 900 ft
2018/04/25 10:11 KMMK 251011Z AUTO 05004KT 10SM OVC009 11/09 A3005 RMK AO2 RAE07 P0000 T01060094
KIJD - Willimantic, Connecticut, USA
Distance from station: NE 19mi, 31km
Updated: Wed, 25-Apr-2018 5:59am EDT
Light rain, Overcast
Light rain, Overcast
 Wind from calm
Wind: Calm
Temperature: 50°F , 10°C
Dew Point: 46°F , 8°C
Humidity: 88%
Barometer: 30.09 inHg , 1019 hPa
Summary: Light rain
Clouds: Overcast
Visibility: 7 miles , 11 km
Cloud details: Overcast 1400 ft
2018/04/25 09:59 KIJD 250959Z AUTO 00000KT 7SM -RA OVC014 10/08 A3009 RMK AO2 P0001 T01000083 $
 
KBDL - Windsor Locks, Connecticut, USA
Distance from station: NNW 25mi, 41km
Updated: Wed, 25-Apr-2018 5:55am EDT
Light rain, Overcast
Light rain, Overcast
 Wind from N
Wind: N 7 mph , 11 km/h
Temperature: 46°F , 8°C
Wind Chill: 42°F , 6°C
Dew Point: 45°F , 7°C
Humidity: 93%
Barometer: 30.08 inHg , 1018.6 hPa
Summary: Light rain
Clouds: Overcast
Visibility: 8 miles , 13 km
Cloud details: Mostly cloudy 1400 ft
Overcast 3300 ft
2018/04/25 09:55 KBDL 250955Z 01006KT 8SM -RA BKN014 OVC033 08/07 A3008 RMK AO2 P0001 T00830072
KGON - Groton/New Londo, Connecticut, USA
Distance from station: SE 29mi, 47km
Updated: Wed, 25-Apr-2018 6:13am EDT
Light rain, Mist, Overcast
Light rain, Mist, Overcast
 Wind from E
Wind: E 15 mph , 24 km/h, Gust: 22 mph , 35 km/h
Temperature: 48°F , 9°C
Wind Chill: 42°F , 6°C
Dew Point: 48°F , 9°C
Humidity: 100%
Barometer: 30.07 inHg , 1018.3 hPa
Summary: Light rain, Mist
Clouds: Overcast
Visibility: 6 miles , 10 km
Cloud details: Few Clouds 2500 ft
Mostly cloudy 4000 ft
Overcast 5500 ft
2018/04/25 10:13 KGON 251013Z AUTO 10013G19KT 6SM -RA BR FEW025 BKN040 OVC055 09/09 A3007 RMK AO2 P0000 T00940089
 
KHVN - New Haven/Tweed, Connecticut, USA
Distance from station: SW 30mi, 48km
Updated: Wed, 25-Apr-2018 6:14am EDT
Overcast
Overcast
 Wind from E
Wind: E 10 mph , 17 km/h
Temperature: 54°F , 12°C
Dew Point: 50°F , 10°C
Humidity: 88%
Barometer: 30.03 inHg , 1016.9 hPa
Clouds: Overcast
Visibility: 7 miles , 11 km
Cloud details: Mostly cloudy 700 ft
Mostly cloudy 2000 ft
Overcast 3100 ft
2018/04/25 10:14 KHVN 251014Z 09009KT 7SM BKN007 BKN020 OVC031 12/10 A3003 RMK AO2 CIG 005V009 T01170100
KOXC - Oxford/Waterbury, Connecticut, USA
Distance from station: WSW 34mi, 55km
Updated: Wed, 25-Apr-2018 6:32am EDT
Light rain, Mist, Overcast
Light rain, Mist, Overcast
 Wind from E
Wind: E 9 mph , 15 km/h
Temperature: 52°F , 11°C
Dew Point: 52°F , 11°C
Humidity: 100%
Barometer: 30.03 inHg , 1016.9 hPa
Summary: Light rain, Mist
Clouds: Overcast
Visibility: 2 1/2 miles , 2 km
Cloud details: Overcast 300 ft
2018/04/25 10:32 KOXC 251032Z 09008KT 050V130 2 1/2SM -RA BR OVC003 11/11 A3003 RMK AO2 VIS 1 3/4V4 RAB12 P0000
 
KWST - Westerly, Rhode Island, USA
Distance from station: ESE 40mi, 64km
Updated: Wed, 25-Apr-2018 5:53am EDT
Light rain, Mist, Overcast
Light rain, Mist, Overcast
 Wind from ESE
Wind: ESE 12 mph , 19 km/h
Temperature: 52°F , 11°C
Dew Point: 48°F , 9°C
Humidity: 88%
Barometer: 30.09 inHg , 1019 hPa
Summary: Light rain, Mist
Clouds: Overcast
Visibility: 6 miles , 10 km
Cloud details: Few Clouds 2400 ft
Mostly cloudy 3100 ft
Overcast 6500 ft
2018/04/25 09:53 KWST 250953Z AUTO 11010KT 6SM -RA BR FEW024 BKN031 OVC065 11/09 A3009 RMK AO2 SLP188 P0003 T01060094 $
KBAF - Westfield, Massachusetts, USA
Distance from station: NNW 41mi, 66km
Updated: Wed, 25-Apr-2018 6:30am EDT
Light rain, Overcast
Light rain, Overcast
 Wind from N
Wind: N 7 mph , 11 km/h
Temperature: 46°F , 8°C
Wind Chill: 42°F , 6°C
Dew Point: 46°F , 8°C
Humidity: 100%
Barometer: 30.08 inHg , 1018.6 hPa
Summary: Light rain
Clouds: Overcast
Visibility: 8 miles , 13 km
Cloud details: Overcast 1300 ft
2018/04/25 10:30 KBAF 251030Z AUTO 36006KT 8SM -RA OVC013 08/08 A3008 RMK AO2 P0003 T00780078
 
KCEF - Chicopee/Westove, Massachusetts, USA
Distance from station: N 42mi, 67km
Updated: Wed, 25-Apr-2018 6:11am EDT
Light rain, Overcast
Light rain, Overcast
 Wind from calm
Wind: Calm
Temperature: 48°F , 9°C
Dew Point: 46°F , 8°C
Humidity: 94%
Barometer: 30.08 inHg , 1018.6 hPa
Summary: Light rain
Clouds: Overcast
Visibility: 9 miles , 14 km
Cloud details: Mostly cloudy 1900 ft
Overcast 5500 ft
2018/04/25 10:11 KCEF 251011Z AUTO 00000KT 9SM -RA BKN019 OVC055 09/08 A3008 RMK AO2 CIG 015 RWY05 SLP192
KBDR - Bridgeport, Connecticut, USA
Distance from station: SW 44mi, 72km
Updated: Wed, 25-Apr-2018 5:52am EDT
Overcast
Overcast
 Wind from ENE
Wind: ENE 13 mph , 20 km/h
Temperature: 48°F , 9°C
Wind Chill: 43°F , 6°C
Dew Point: 46°F , 8°C
Humidity: 94%
Barometer: 30.03 inHg , 1016.9 hPa
Clouds: Overcast
Visibility: 8 miles , 13 km
Cloud details: Mostly cloudy 900 ft
Overcast 6000 ft
2018/04/25 09:52 KBDR 250952Z AUTO 07011KT 8SM BKN009 OVC060 09/08 A3003 RMK AO2 RAE38 SLP167 P0001 T00940083 $
 
KHTO - East Hampton, New York, USA
Distance from station: SSE 46mi, 74km
Updated: Wed, 25-Apr-2018 6:15am EDT
Light rain, Overcast
Light rain, Overcast
 Wind from ESE
Wind: ESE 10 mph , 17 km/h
Temperature: 48°F , 9°C
Wind Chill: 44°F , 7°C
Dew Point: 46°F , 8°C
Humidity: 94%
Barometer: 30.04 inHg , 1017.3 hPa
Summary: Light rain
Clouds: Overcast
Visibility: 7 miles , 11 km
Cloud details: Mostly cloudy 600 ft
Mostly cloudy 1700 ft
Overcast 3400 ft
2018/04/25 10:15 KHTO 251015Z AUTO 11009KT 7SM -RA BKN006 BKN017 OVC034 09/08 A3004 RMK AO2 P0002 T00900083
KMTP - Montauk, New York, USA
Distance from station: SE 47mi, 76km
Updated: Wed, 25-Apr-2018 5:54am EDT

 Wind from ESE
Wind: ESE 9 mph , 15 km/h, Gust: 18 mph , 30 km/h
Temperature: 52°F , 11°C
Dew Point: 48°F , 9°C
Humidity: 88%
Barometer: 30.07 inHg , 1018.3 hPa
2018/04/25 09:54 KMTP 250954Z AUTO 12008G16KT 11/09 A3007 RMK AO1 SLP183 P0003 T01060094